aviador You're here:

KOKK Decoded Metar

KOKOMO in IN, USA
Report Time2018-04-26 12:56:00
UTC Time2018-04-26 13:20:24
Flight Rules vfr VFR
Wind040° at 04 kt
W.Decomp.*RWY 05: 4.0 kt HW 0.6 kt LCW
RWY 32: 0.6 kt HW 4.0 kt RCW
W.Rank040° ranks 35
Current wind is below 040° avg. (6.7)
Visibility9999 m
Phenomena:N/A
Clouds:N/A
Expected CloudBase > 1,600 ft AGL from Temp-Dew spread
CeilingNone
Temp05°C (ISA -8)
Dew Point01°C (76% RH)
AAT1.7°C
QNH1014 hPa
Density Alt-118 ft
Elevation830 ft
Report Wrong Elevation
Raw Report
KOKK 261256Z AUTO 04004KT 10SM CLR 05/01 A2995 RMK AO2 SLP147
T00500011=

Extra information for KOKK:More info

Metar Taf Metar & Taf Last 4 Metars F.Rules Stats Wind Profile Meteogram Temp Stats Airport Information Weather charts Add Link Nearby VenuesMetar ALERT Operation Metar Decoded Social comments

AIRNAV info for KOKK